createdAt,value
2017-10-19T00:01:55.820Z,10.21
2017-10-19T00:04:28.384Z,10.24
2017-10-19T00:07:01.520Z,9.91
2017-10-19T00:12:10.339Z,10.10
2017-10-19T00:14:43.015Z,10.18
2017-10-19T00:17:14.658Z,10.19
2017-10-19T00:19:54.345Z,9.77
2017-10-19T00:22:25.150Z,10.00
2017-10-19T00:24:59.383Z,10.05
2017-10-19T00:27:33.812Z,10.13
2017-10-19T00:30:09.238Z,10.13
2017-10-19T00:32:46.775Z,10.13
2017-10-19T00:35:20.375Z,10.23
2017-10-19T00:37:51.466Z,10.19
2017-10-19T00:40:22.842Z,10.08
2017-10-19T00:42:53.867Z,9.81
2017-10-19T00:45:29.424Z,10.03
2017-10-19T00:48:00.394Z,10.03
2017-10-19T00:50:31.841Z,10.01
2017-10-19T00:53:02.825Z,10.02
2017-10-19T00:55:34.129Z,10.01
2017-10-19T00:58:05.490Z,10.03
2017-10-19T01:00:39.046Z,10.05
2017-10-19T01:03:10.506Z,10.02
2017-10-19T01:05:42.475Z,9.94
2017-10-19T01:08:13.664Z,9.92
2017-10-19T01:10:44.986Z,9.61
2017-10-19T01:13:16.059Z,9.82
2017-10-19T01:15:47.515Z,9.50
2017-10-19T01:18:18.635Z,9.29
2017-10-19T01:20:50.190Z,9.50
2017-10-19T01:23:21.131Z,9.58
2017-10-19T01:25:52.521Z,9.12
2017-10-19T01:28:24.239Z,9.17
2017-10-19T01:30:55.428Z,9.37
2017-10-19T01:33:26.996Z,9.47
2017-10-19T01:35:59.843Z,9.51
2017-10-19T01:38:31.572Z,9.49
2017-10-19T01:41:03.153Z,9.56
2017-10-19T01:43:39.316Z,9.63
2017-10-19T01:46:10.934Z,9.68
2017-10-19T01:48:42.347Z,9.68
2017-10-19T01:51:13.320Z,9.60
2017-10-19T01:53:44.415Z,9.57
2017-10-19T01:56:15.476Z,9.56
2017-10-19T01:58:48.037Z,9.56
2017-10-19T02:01:21.266Z,9.59
2017-10-19T02:03:52.558Z,9.59
2017-10-19T02:06:23.804Z,9.60
2017-10-19T02:08:55.135Z,9.59
2017-10-19T02:12:05.304Z,9.59
2017-10-19T02:14:38.263Z,9.57
2017-10-19T02:17:09.251Z,9.54
2017-10-19T02:19:42.126Z,9.32
2017-10-19T02:22:13.710Z,8.90
2017-10-19T02:24:44.839Z,8.67
2017-10-19T02:27:15.794Z,9.04
2017-10-19T02:29:46.675Z,9.17
2017-10-19T02:32:17.889Z,9.14
2017-10-19T02:34:48.599Z,9.21
2017-10-19T02:37:19.857Z,9.19
2017-10-19T02:39:50.915Z,9.15
2017-10-19T02:42:21.951Z,9.22
2017-10-19T02:44:52.923Z,9.19
2017-10-19T02:47:24.147Z,9.17
2017-10-19T02:49:55.694Z,9.17
2017-10-19T02:52:26.885Z,9.13
2017-10-19T02:54:58.154Z,9.15
2017-10-19T02:57:29.415Z,9.18
2017-10-19T03:00:00.534Z,9.20
2017-10-19T03:02:32.163Z,9.20
2017-10-19T03:05:03.263Z,9.12
2017-10-19T03:07:36.290Z,9.11
2017-10-19T03:10:07.645Z,9.11
2017-10-19T03:12:42.370Z,9.14
2017-10-19T03:15:13.335Z,9.16
2017-10-19T03:17:44.219Z,9.13
2017-10-19T03:20:15.223Z,9.08
2017-10-19T03:22:46.591Z,9.00
2017-10-19T03:25:17.204Z,8.98
2017-10-19T03:27:48.275Z,8.97
2017-10-19T03:30:20.169Z,8.95
2017-10-19T03:32:51.287Z,8.95
2017-10-19T03:35:22.364Z,8.86
2017-10-19T03:37:53.372Z,8.89
2017-10-19T03:40:24.950Z,8.89
2017-10-19T03:42:55.974Z,8.86
2017-10-19T03:45:27.022Z,8.86
2017-10-19T03:47:58.366Z,8.86
2017-10-19T03:50:29.531Z,8.89
2017-10-19T03:53:01.479Z,8.90
2017-10-19T03:55:32.845Z,8.87
2017-10-19T03:58:04.040Z,8.88
2017-10-19T04:00:36.604Z,8.88
2017-10-19T04:03:07.827Z,8.86
2017-10-19T04:05:42.528Z,8.87
2017-10-19T04:08:14.538Z,8.85
2017-10-19T04:10:53.405Z,8.87
2017-10-19T04:13:24.675Z,8.87
2017-10-19T04:15:55.906Z,8.81
2017-10-19T04:18:27.923Z,8.62
2017-10-19T04:21:00.190Z,8.41
2017-10-19T04:23:31.620Z,8.41
2017-10-19T04:26:04.220Z,8.37
2017-10-19T04:28:38.471Z,8.34
2017-10-19T04:31:10.515Z,8.51
2017-10-19T04:33:42.926Z,8.53
2017-10-19T04:36:14.235Z,8.59
2017-10-19T04:38:45.638Z,8.58
2017-10-19T04:41:16.892Z,8.58
2017-10-19T04:43:47.993Z,8.60
2017-10-19T04:46:18.662Z,8.50
2017-10-19T04:48:49.232Z,8.58
2017-10-19T04:51:21.382Z,8.60
2017-10-19T04:53:56.942Z,8.56
2017-10-19T04:56:28.297Z,8.52
2017-10-19T04:58:59.620Z,8.48
2017-10-19T05:01:30.663Z,8.48
2017-10-19T05:04:02.488Z,8.50
2017-10-19T05:06:38.337Z,8.52
2017-10-19T05:09:11.411Z,8.51
2017-10-19T05:11:42.530Z,8.20
2017-10-19T05:14:14.872Z,8.25
2017-10-19T05:16:46.258Z,8.31
2017-10-19T05:19:17.099Z,8.37
2017-10-19T05:21:48.182Z,8.33
2017-10-19T05:24:19.506Z,8.37
2017-10-19T05:26:49.981Z,8.36
2017-10-19T05:29:21.143Z,8.35
2017-10-19T05:31:52.714Z,8.32
2017-10-19T05:34:23.578Z,7.91
2017-10-19T05:36:55.649Z,8.19
2017-10-19T05:39:26.512Z,8.27
2017-10-19T05:41:57.864Z,8.23
2017-10-19T05:44:28.731Z,8.26
2017-10-19T05:46:59.279Z,8.01
2017-10-19T05:49:31.006Z,8.14
2017-10-19T05:52:02.001Z,8.12
2017-10-19T05:54:32.912Z,8.22
2017-10-19T05:57:04.611Z,7.97
2017-10-19T05:59:38.755Z,8.14
2017-10-19T06:02:09.484Z,8.22
2017-10-19T06:04:42.228Z,8.26
2017-10-19T06:07:12.761Z,8.26
2017-10-19T06:09:44.256Z,8.27
2017-10-19T06:12:15.826Z,8.30
2017-10-19T06:14:46.338Z,8.37
2017-10-19T06:17:17.915Z,8.37
2017-10-19T06:19:49.269Z,8.38
2017-10-19T06:22:20.260Z,8.38
2017-10-19T06:24:50.715Z,8.41
2017-10-19T06:27:21.555Z,8.46
2017-10-19T06:29:53.529Z,8.48
2017-10-19T06:32:24.682Z,8.49
2017-10-19T06:34:55.929Z,8.54
2017-10-19T06:37:26.570Z,8.61
2017-10-19T06:39:57.036Z,8.65
2017-10-19T06:42:28.049Z,8.71
2017-10-19T06:44:59.091Z,8.75
2017-10-19T06:47:30.051Z,8.78
2017-10-19T06:50:01.322Z,8.81
2017-10-19T06:52:32.486Z,8.91
2017-10-19T06:55:03.566Z,8.96
2017-10-19T07:00:12.636Z,9.08
2017-10-19T07:02:44.950Z,9.20
2017-10-19T07:05:17.519Z,9.33
2017-10-19T07:07:49.323Z,9.40
2017-10-19T07:10:20.025Z,9.50
2017-10-19T07:12:50.607Z,9.64
2017-10-19T07:15:22.241Z,9.72
2017-10-19T07:17:54.937Z,9.90
2017-10-19T07:20:26.759Z,9.98
2017-10-19T07:22:59.693Z,10.04
2017-10-19T07:25:31.968Z,10.26
2017-10-19T07:28:02.984Z,10.48
2017-10-19T07:30:33.533Z,10.63
2017-10-19T07:33:05.604Z,10.69
2017-10-19T07:35:37.881Z,10.67
2017-10-19T07:38:08.528Z,10.62
2017-10-19T07:40:40.863Z,10.70
2017-10-19T07:43:11.625Z,10.87
2017-10-19T07:45:43.194Z,11.01
2017-10-19T07:48:14.531Z,10.94
2017-10-19T07:50:44.995Z,11.45
2017-10-19T07:53:15.642Z,11.76
2017-10-19T07:55:46.935Z,11.88
2017-10-19T07:58:17.724Z,11.84
2017-10-19T08:00:48.367Z,11.86
2017-10-19T08:03:19.390Z,12.07
2017-10-19T08:05:51.767Z,11.91
2017-10-19T08:08:25.355Z,12.16
2017-10-19T08:10:55.844Z,12.23
2017-10-19T08:13:27.387Z,12.55
2017-10-19T08:15:58.875Z,12.56
2017-10-19T08:18:30.122Z,12.84
2017-10-19T08:21:02.423Z,12.61
2017-10-19T08:23:33.862Z,13.02
2017-10-19T08:26:04.687Z,12.76
2017-10-19T08:28:37.928Z,13.25
2017-10-19T08:31:09.103Z,13.64
2017-10-19T08:33:43.699Z,13.69
2017-10-19T08:36:14.790Z,13.93
2017-10-19T08:38:45.927Z,13.86
2017-10-19T08:41:16.873Z,14.39
2017-10-19T08:43:48.060Z,14.64
2017-10-19T08:46:19.368Z,14.57
2017-10-19T08:48:50.547Z,13.99
2017-10-19T08:51:22.166Z,14.51
2017-10-19T08:53:53.327Z,14.78
2017-10-19T08:56:24.484Z,14.55
2017-10-19T08:58:56.098Z,14.91
2017-10-19T09:01:26.756Z,15.24
2017-10-19T09:03:58.029Z,15.28
2017-10-19T09:06:28.538Z,14.99
2017-10-19T09:08:59.643Z,15.07
2017-10-19T09:11:30.119Z,14.98
2017-10-19T09:14:01.401Z,14.82
2017-10-19T09:16:31.920Z,14.96
2017-10-19T09:19:02.550Z,14.92
2017-10-19T09:21:33.075Z,14.86
2017-10-19T09:24:04.106Z,15.59
2017-10-19T09:26:44.973Z,15.74
2017-10-19T09:29:17.214Z,15.82
2017-10-19T09:31:49.061Z,16.04
2017-10-19T09:34:20.372Z,15.91
2017-10-19T09:36:57.121Z,15.81
2017-10-19T09:39:28.505Z,16.05
2017-10-19T09:42:07.232Z,15.81
2017-10-19T09:44:54.338Z,16.09
2017-10-19T09:47:25.582Z,16.04
2017-10-19T09:49:57.191Z,16.32
2017-10-19T09:52:30.431Z,16.65
2017-10-19T09:55:03.202Z,16.99
2017-10-19T09:57:33.710Z,16.67
2017-10-19T10:00:11.652Z,16.82
2017-10-19T10:02:50.952Z,16.99
2017-10-19T10:05:22.168Z,17.12
2017-10-19T10:07:54.012Z,16.80
2017-10-19T10:10:28.647Z,16.70
2017-10-19T10:13:00.310Z,16.83
2017-10-19T10:15:32.943Z,16.88
2017-10-19T10:18:06.035Z,16.99
2017-10-19T10:20:41.848Z,16.97
2017-10-19T10:23:12.986Z,17.16
2017-10-19T10:25:44.005Z,17.12
2017-10-19T10:28:15.511Z,17.32
2017-10-19T10:30:48.541Z,17.29
2017-10-19T10:33:21.247Z,17.45
2017-10-19T10:35:53.855Z,17.53
2017-10-19T10:38:25.877Z,17.63
2017-10-19T10:40:57.312Z,17.68
2017-10-19T10:43:33.685Z,17.71
2017-10-19T10:46:04.726Z,17.90
2017-10-19T10:48:38.497Z,17.95
2017-10-19T10:51:12.155Z,17.94
2017-10-19T10:53:43.551Z,18.02
2017-10-19T10:56:14.334Z,18.27
2017-10-19T10:58:51.002Z,18.23
2017-10-19T11:01:24.141Z,18.35
2017-10-19T11:03:56.370Z,18.13
2017-10-19T11:06:27.814Z,18.39
2017-10-19T11:08:59.796Z,18.51
2017-10-19T11:11:32.667Z,18.67
2017-10-19T11:14:05.151Z,19.34
2017-10-19T11:16:39.836Z,19.25
2017-10-19T11:19:11.982Z,19.17
2017-10-19T11:21:43.916Z,19.53
2017-10-19T11:24:26.598Z,19.41
2017-10-19T11:27:19.904Z,19.93
2017-10-19T11:34:54.595Z,19.22
2017-10-19T11:37:49.969Z,19.16
2017-10-19T11:40:43.884Z,19.19
2017-10-19T11:43:19.994Z,20.14
2017-10-19T11:45:51.215Z,20.90
2017-10-19T11:48:24.754Z,20.18
2017-10-19T11:51:25.978Z,20.27
2017-10-19T11:54:05.200Z,19.93
2017-10-19T11:56:43.679Z,20.17
2017-10-19T11:59:15.539Z,21.13
2017-10-19T12:01:53.606Z,20.68
2017-10-19T12:04:30.548Z,21.08
2017-10-19T12:07:01.994Z,21.44
2017-10-19T12:10:12.997Z,21.85
2017-10-19T12:12:43.744Z,21.92
2017-10-19T12:15:16.031Z,21.76
2017-10-19T12:17:49.055Z,22.05
2017-10-19T12:20:24.156Z,21.93
2017-10-19T12:22:57.672Z,21.72
2017-10-19T12:25:44.007Z,21.61
2017-10-19T12:28:21.770Z,21.03
2017-10-19T12:31:08.174Z,21.32
2017-10-19T12:33:42.112Z,20.94
2017-10-19T12:36:12.897Z,20.72
2017-10-19T12:38:45.925Z,21.12
2017-10-19T12:41:16.844Z,21.30
2017-10-19T12:43:47.726Z,21.45
2017-10-19T12:46:18.722Z,21.65
2017-10-19T12:48:50.182Z,21.67
2017-10-19T12:51:21.086Z,21.84
2017-10-19T12:53:53.752Z,21.86
2017-10-19T12:56:24.899Z,21.97
2017-10-19T12:58:56.564Z,21.97
2017-10-19T13:01:27.373Z,21.73
2017-10-19T13:03:58.071Z,21.40
2017-10-19T13:06:31.511Z,21.61
2017-10-19T13:09:02.525Z,21.68
2017-10-19T13:11:34.036Z,21.70
2017-10-19T13:14:07.385Z,21.68
2017-10-19T13:16:41.476Z,21.75
2017-10-19T13:19:13.547Z,21.91
2017-10-19T13:21:44.921Z,21.76
2017-10-19T13:24:16.311Z,21.69
2017-10-19T13:26:50.536Z,21.70
2017-10-19T13:29:21.468Z,21.39
2017-10-19T13:31:55.786Z,21.19
2017-10-19T13:34:31.892Z,21.24
2017-10-19T13:37:03.592Z,21.04
2017-10-19T13:39:42.461Z,21.03
2017-10-19T13:45:26.753Z,20.75
2017-10-19T13:47:58.021Z,20.69
2017-10-19T13:50:31.051Z,20.75
2017-10-19T13:53:02.311Z,20.72
2017-10-19T13:55:34.248Z,20.63
2017-10-19T13:58:05.965Z,20.73
2017-10-19T14:00:39.923Z,20.76
2017-10-19T14:03:11.357Z,20.75
2017-10-19T14:05:45.629Z,20.95
2017-10-19T14:08:17.761Z,21.00
2017-10-19T14:10:50.808Z,20.76
2017-10-19T14:13:24.975Z,20.75
2017-10-19T14:15:56.816Z,20.69
2017-10-19T14:18:29.387Z,20.54
2017-10-19T14:21:02.049Z,20.47
2017-10-19T14:23:37.366Z,20.35
2017-10-19T14:26:09.805Z,20.40
2017-10-19T14:28:45.819Z,20.45
2017-10-19T14:31:18.314Z,20.45
2017-10-19T14:33:50.909Z,20.38
2017-10-19T14:36:25.335Z,20.53
2017-10-19T14:39:05.633Z,20.57
2017-10-19T14:41:45.235Z,20.68
2017-10-19T14:44:18.822Z,20.64
2017-10-19T14:46:52.991Z,20.54
2017-10-19T14:52:14.340Z,20.50
2017-10-19T14:54:46.332Z,20.45
2017-10-19T14:57:25.313Z,20.59
2017-10-19T15:00:06.517Z,20.50
2017-10-19T15:02:42.879Z,20.40
2017-10-19T15:05:16.795Z,20.45
2017-10-19T15:07:51.539Z,20.42
2017-10-19T15:10:22.785Z,20.43
2017-10-19T15:12:54.145Z,20.37
2017-10-19T15:15:30.435Z,20.32
2017-10-19T15:18:02.850Z,20.22
2017-10-19T15:20:41.347Z,20.12
2017-10-19T15:23:14.126Z,19.98
2017-10-19T15:25:48.861Z,19.95
2017-10-19T15:28:20.119Z,19.83
2017-10-19T15:30:53.015Z,19.85
2017-10-19T15:33:25.379Z,19.77
2017-10-19T15:36:01.687Z,19.65
2017-10-19T15:38:33.526Z,19.72
2017-10-19T15:41:04.471Z,19.73
2017-10-19T15:43:35.564Z,19.69
2017-10-19T15:46:06.982Z,19.68
2017-10-19T15:48:38.807Z,19.61
2017-10-19T15:51:16.628Z,19.54
2017-10-19T15:53:48.403Z,19.41
2017-10-19T15:56:20.321Z,19.36
2017-10-19T15:58:51.286Z,19.26
2017-10-19T16:01:23.715Z,19.19
2017-10-19T16:03:57.458Z,19.09
2017-10-19T16:06:28.868Z,19.02
2017-10-19T16:09:00.754Z,18.97
2017-10-19T16:11:32.465Z,18.86
2017-10-19T16:14:05.061Z,18.88
2017-10-19T16:17:05.248Z,18.88
2017-10-19T16:24:12.387Z,18.59
2017-10-19T16:26:43.632Z,18.27
2017-10-19T16:29:14.700Z,18.11
2017-10-19T16:31:45.534Z,17.83
2017-10-19T16:34:26.557Z,17.78
2017-10-19T16:36:58.097Z,17.84
2017-10-19T16:39:29.361Z,17.84
2017-10-19T16:42:00.801Z,17.75
2017-10-19T16:44:33.801Z,17.73
2017-10-19T16:47:07.672Z,17.70
2017-10-19T16:49:43.271Z,17.74
2017-10-19T16:52:15.801Z,17.76
2017-10-19T16:54:47.174Z,17.69
2017-10-19T16:57:19.306Z,17.62
2017-10-19T16:59:50.974Z,17.58
2017-10-19T17:02:22.454Z,17.60
2017-10-19T17:04:55.611Z,17.61
2017-10-19T17:07:27.414Z,17.53
2017-10-19T17:09:58.997Z,17.46
2017-10-19T17:12:30.061Z,17.34
2017-10-19T17:15:03.901Z,17.33
2017-10-19T17:17:36.576Z,17.34
2017-10-19T17:20:20.025Z,17.25
2017-10-19T17:22:53.128Z,17.20
2017-10-19T17:25:28.685Z,17.13
2017-10-19T17:28:07.333Z,17.02
2017-10-19T17:30:43.159Z,16.99
2017-10-19T17:33:14.052Z,16.94
2017-10-19T17:35:45.800Z,16.91
2017-10-19T17:38:18.145Z,16.90
2017-10-19T17:40:52.534Z,16.73
2017-10-19T17:43:24.132Z,16.72
2017-10-19T17:45:57.320Z,16.69
2017-10-19T17:48:28.590Z,16.74
2017-10-19T17:51:01.361Z,16.70
2017-10-19T17:53:33.647Z,16.64
2017-10-19T17:56:09.081Z,16.61
2017-10-19T17:58:44.074Z,16.38
2017-10-19T18:01:15.711Z,16.22
2017-10-19T18:03:47.391Z,16.11
2017-10-19T18:06:18.334Z,16.08
2017-10-19T18:08:50.664Z,16.10
2017-10-19T18:11:26.928Z,16.05
2017-10-19T18:13:58.180Z,15.98
2017-10-19T18:16:33.243Z,16.02
2017-10-19T18:19:07.048Z,16.07
2017-10-19T18:21:42.473Z,16.03
2017-10-19T18:24:13.589Z,15.97
2017-10-19T18:26:44.950Z,15.94
2017-10-19T18:29:16.548Z,15.94
2017-10-19T18:31:48.771Z,15.96
2017-10-19T18:34:30.376Z,15.85
2017-10-19T18:37:04.521Z,15.97
2017-10-19T18:39:39.917Z,15.85
2017-10-19T18:42:15.429Z,15.95
2017-10-19T18:44:47.290Z,16.05
2017-10-19T18:47:18.418Z,16.17
2017-10-19T18:49:51.609Z,16.11
2017-10-19T18:52:22.735Z,15.99
2017-10-19T18:54:55.877Z,15.92
2017-10-19T18:57:33.022Z,15.82
2017-10-19T19:00:09.205Z,15.63
2017-10-19T19:02:47.190Z,15.74
2017-10-19T19:05:19.660Z,15.50
2017-10-19T19:07:51.951Z,15.36
2017-10-19T19:10:24.064Z,15.40
2017-10-19T19:12:56.809Z,15.33
2017-10-19T19:15:28.630Z,15.57
2017-10-19T19:18:03.078Z,15.53
2017-10-19T19:20:36.460Z,15.64
2017-10-19T19:23:09.483Z,15.47
2017-10-19T19:25:45.059Z,15.70
2017-10-19T19:28:16.169Z,15.73
2017-10-19T19:30:46.918Z,15.73
2017-10-19T19:33:18.210Z,15.67
2017-10-19T19:35:49.519Z,15.57
2017-10-19T19:38:22.269Z,15.52
2017-10-19T19:40:53.803Z,15.60
2017-10-19T19:43:24.916Z,15.84
2017-10-19T19:45:55.609Z,15.95
2017-10-19T19:48:26.519Z,16.03
2017-10-19T19:50:57.636Z,16.04
2017-10-19T19:53:28.940Z,15.96
2017-10-19T19:55:59.738Z,15.97
2017-10-19T19:58:31.149Z,15.94
2017-10-19T20:01:02.010Z,16.06
2017-10-19T20:03:33.177Z,16.07
2017-10-19T20:06:05.684Z,16.17
2017-10-19T20:08:39.670Z,16.23
2017-10-19T20:11:16.106Z,16.22
2017-10-19T20:13:47.183Z,16.13
2017-10-19T20:16:18.115Z,16.10
2017-10-19T20:18:50.581Z,16.01
2017-10-19T20:21:22.804Z,16.11
2017-10-19T20:23:54.198Z,16.04
2017-10-19T20:26:25.135Z,15.98
2017-10-19T20:28:56.432Z,15.93
2017-10-19T20:31:28.868Z,15.89
2017-10-19T20:33:59.607Z,15.83
2017-10-19T20:36:30.315Z,15.79
2017-10-19T20:39:01.331Z,15.88
2017-10-19T20:41:32.740Z,15.97
2017-10-19T20:44:03.673Z,16.08
2017-10-19T20:46:35.819Z,16.10
2017-10-19T20:49:07.187Z,16.01
2017-10-19T20:51:40.623Z,16.02
2017-10-19T20:54:12.210Z,15.95
2017-10-19T20:56:43.424Z,15.94
2017-10-19T20:59:16.522Z,15.95
2017-10-19T21:45:31.151Z,14.76
2017-10-19T21:48:02.876Z,14.84
2017-10-19T21:50:36.645Z,14.71
2017-10-19T21:53:09.389Z,14.89
2017-10-19T21:55:42.681Z,14.89
2017-10-19T21:58:14.032Z,14.81
2017-10-19T22:00:51.227Z,14.88
2017-10-19T22:03:23.430Z,14.97
2017-10-19T22:05:54.910Z,14.92
2017-10-19T22:08:26.448Z,14.80
2017-10-19T22:10:57.184Z,14.75
2017-10-19T22:13:28.245Z,14.60
2017-10-19T22:15:59.028Z,14.44
2017-10-19T22:18:31.036Z,14.30
2017-10-19T22:21:02.404Z,14.20
2017-10-19T22:23:33.497Z,14.24
2017-10-19T22:26:04.909Z,13.87
2017-10-19T22:28:38.982Z,13.87
2017-10-19T22:31:09.680Z,13.61
2017-10-19T22:33:42.445Z,13.72
2017-10-19T22:36:13.619Z,13.59
2017-10-19T22:38:44.215Z,13.66
2017-10-19T22:41:15.717Z,13.64
2017-10-19T22:43:46.816Z,13.75
2017-10-19T22:46:17.733Z,13.52
2017-10-19T22:48:49.487Z,13.59
2017-10-19T22:51:20.801Z,13.64
2017-10-19T22:53:52.160Z,13.50
2017-10-19T22:56:23.401Z,13.59
2017-10-19T22:58:55.494Z,13.56
2017-10-19T23:01:26.585Z,13.71
2017-10-19T23:03:57.931Z,13.61
2017-10-19T23:06:30.337Z,13.62
2017-10-19T23:09:02.321Z,13.66
2017-10-19T23:11:33.256Z,13.82
2017-10-19T23:14:03.959Z,13.91
2017-10-19T23:16:37.663Z,13.92
2017-10-19T23:19:08.731Z,13.93
2017-10-19T23:21:42.504Z,13.94
2017-10-19T23:24:17.272Z,13.99
2017-10-19T23:26:48.663Z,13.98
2017-10-19T23:29:19.951Z,14.00
2017-10-19T23:31:51.898Z,13.95
2017-10-19T23:34:23.231Z,13.91
2017-10-19T23:36:54.871Z,13.93
2017-10-19T23:39:26.180Z,13.67
2017-10-19T23:41:57.566Z,13.62
2017-10-19T23:44:28.744Z,13.66
2017-10-19T23:47:00.315Z,13.30
2017-10-19T23:49:31.850Z,13.18
2017-10-19T23:52:02.833Z,13.02
2017-10-19T23:54:34.438Z,12.91
2017-10-19T23:57:05.671Z,12.83
2017-10-19T23:59:39.901Z,12.64
